Time;durP1;ratioP1;P1;durP2;ratioP2;P2;SDS_P1;SDS_P2;PMS_P1;PMS_P2;Temp;Humidity;BMP_temperature;BMP_pressure;BME280_temperature;BME280_humidity;BME280_pressure;Samples;Min_cycle;Max_cycle;Signal;HPM_P1;HPM_P2
2024/02/18 00:00:04;;;;;;;206.32;110.63;;;;;;;;;;4962878;28;20420;-47
2024/02/18 00:02:35;;;;;;;596.83;165.70;;;;;;;;;;4970989;28;20059;-47
2024/02/18 00:05:02;;;;;;;661.85;171.93;;;;;;;;;;4963160;28;20046;-48
2024/02/18 00:07:28;;;;;;;597.38;148.52;;;;;;;;;;4972987;28;20427;-46
2024/02/18 00:09:55;;;;;;;1306.03;257.50;;;;;;;;;;4959679;28;20031;-47
2024/02/18 00:12:24;;;;;;;945.35;198.73;;;;;;;;;;4953326;29;20404;-49
2024/02/18 00:14:51;;;;;;;332.67;118.43;;;;;;;;;;4964053;28;20394;-46
2024/02/18 00:17:18;;;;;;;312.38;120.47;;;;;;;;;;4955098;28;20035;-47
2024/02/18 00:19:44;;;;;;;452.00;129.82;;;;;;;;;;4954884;28;20504;-47
2024/02/18 00:22:10;;;;;;;180.90;105.43;;;;;;;;;;4962850;28;20034;-47
2024/02/18 00:24:37;;;;;;;154.90;98.00;;;;;;;;;;4973705;28;20038;-49
2024/02/18 00:27:03;;;;;;;176.02;105.20;;;;;;;;;;4960877;28;20216;-46
2024/02/18 00:29:29;;;;;;;304.33;125.50;;;;;;;;;;4954443;28;20049;-46
2024/02/18 00:31:56;;;;;;;1851.93;312.80;;;;;;;;;;4954408;28;20031;-49
2024/02/18 00:34:22;;;;;;;1440.80;258.30;;;;;;;;;;4954308;28;20058;-48
2024/02/18 00:36:48;;;;;;;1669.07;281.48;;;;;;;;;;4954119;28;20078;-47
2024/02/18 00:39:15;;;;;;;1560.13;259.37;;;;;;;;;;4966015;28;20563;-44
2024/02/18 00:41:44;;;;;;;1423.95;255.93;;;;;;;;;;4973496;28;20033;-46
2024/02/18 00:44:10;;;;;;;1741.20;278.25;;;;;;;;;;4972076;28;20031;-46
2024/02/18 00:46:37;;;;;;;977.40;214.87;;;;;;;;;;4973343;28;20045;-45
2024/02/18 00:49:03;;;;;;;1389.23;244.57;;;;;;;;;;4973444;28;20037;-50
2024/02/18 00:51:29;;;;;;;935.43;209.20;;;;;;;;;;4973374;28;20357;-46
2024/02/18 00:53:57;;;;;;;1458.93;267.00;;;;;;;;;;4973316;28;20088;-47
2024/02/18 00:56:25;;;;;;;945.03;200.43;;;;;;;;;;4973410;28;20129;-46
2024/02/18 00:58:54;;;;;;;931.85;211.20;;;;;;;;;;4971923;28;20105;-49
2024/02/18 01:01:20;;;;;;;906.42;204.05;;;;;;;;;;4972000;28;20035;-50
2024/02/18 01:03:47;;;;;;;1285.27;256.13;;;;;;;;;;4973070;28;20042;-51
2024/02/18 01:06:13;;;;;;;715.90;169.85;;;;;;;;;;4972978;28;20019;-47
2024/02/18 01:08:39;;;;;;;548.97;139.10;;;;;;;;;;4971852;28;20031;-48
2024/02/18 01:11:06;;;;;;;457.20;138.77;;;;;;;;;;4973037;28;20391;-48
2024/02/18 01:13:32;;;;;;;480.33;135.82;;;;;;;;;;4971582;28;20258;-47
2024/02/18 01:15:59;;;;;;;847.38;183.38;;;;;;;;;;4967438;28;20113;-49
2024/02/18 01:18:25;;;;;;;852.90;192.93;;;;;;;;;;4959608;28;20340;-47
2024/02/18 01:20:51;;;;;;;598.28;162.18;;;;;;;;;;4953653;28;20027;-48
2024/02/18 01:23:17;;;;;;;611.87;155.80;;;;;;;;;;4937308;28;20403;-49
2024/02/18 01:25:44;;;;;;;524.07;136.33;;;;;;;;;;4962997;28;20062;-47
2024/02/18 01:28:10;;;;;;;1075.22;216.70;;;;;;;;;;4953699;28;20027;-47
2024/02/18 01:30:36;;;;;;;609.55;165.48;;;;;;;;;;4965509;28;20035;-48
2024/02/18 01:33:02;;;;;;;620.13;180.10;;;;;;;;;;4961566;28;20120;-48
2024/02/18 01:35:30;;;;;;;454.30;147.67;;;;;;;;;;4968858;28;20093;-46
2024/02/18 01:37:56;;;;;;;291.80;117.13;;;;;;;;;;4961065;28;20380;-49
2024/02/18 01:40:23;;;;;;;181.85;108.68;;;;;;;;;;4969507;28;20031;-46
2024/02/18 01:42:49;;;;;;;252.33;116.63;;;;;;;;;;4954410;28;20405;-51
2024/02/18 01:45:16;;;;;;;309.85;121.35;;;;;;;;;;4937145;28;20275;-50
2024/02/18 01:47:43;;;;;;;388.23;126.27;;;;;;;;;;4936221;29;20031;-47
2024/02/18 01:50:09;;;;;;;;;;;;;;;;;;4955028;28;20059;-49
2024/02/18 01:52:36;;;;;;;1011.42;201.15;;;;;;;;;;4952085;28;19910;-48
2024/02/18 01:55:02;;;;;;;;;;;;;;;;;;4953534;28;20489;-46
2024/02/18 01:57:29;;;;;;;729.35;161.70;;;;;;;;;;4954213;28;19911;-49
2024/02/18 02:00:00;;;;;;;357.10;114.45;;;;;;;;;;4959402;28;20038;-48
2024/02/18 02:02:26;;;;;;;884.75;201.38;;;;;;;;;;4971112;28;20019;-46
2024/02/18 02:04:53;;;;;;;594.10;139.18;;;;;;;;;;4958173;28;20043;-46
2024/02/18 02:07:20;;;;;;;466.02;125.85;;;;;;;;;;4952976;28;20027;-47
2024/02/18 02:09:46;;;;;;;500.80;129.07;;;;;;;;;;4962683;28;20042;-47
2024/02/18 02:12:13;;;;;;;424.05;123.47;;;;;;;;;;4972049;28;20555;-47
2024/02/18 02:14:39;;;;;;;438.97;125.70;;;;;;;;;;4966182;28;20436;-48
2024/02/18 02:17:07;;;;;;;810.40;166.27;;;;;;;;;;4954301;28;20039;-46
2024/02/18 02:19:34;;;;;;;802.47;171.80;;;;;;;;;;4957907;28;20039;-49
2024/02/18 02:22:00;;;;;;;723.40;162.93;;;;;;;;;;4951898;28;20426;-50
2024/02/18 02:24:26;;;;;;;1018.78;206.30;;;;;;;;;;4953146;28;20038;-48
2024/02/18 02:26:54;;;;;;;557.13;134.67;;;;;;;;;;4956487;28;20070;-46
2024/02/18 02:29:20;;;;;;;835.38;175.95;;;;;;;;;;4959171;28;20262;-48
2024/02/18 02:31:46;;;;;;;730.13;148.83;;;;;;;;;;4960410;28;20488;-49
2024/02/18 02:34:13;;;;;;;737.27;159.10;;;;;;;;;;4964758;28;20035;-48
2024/02/18 02:36:39;;;;;;;807.03;147.98;;;;;;;;;;4973251;28;20054;-48
2024/02/18 02:39:07;;;;;;;908.05;165.10;;;;;;;;;;4948815;28;20027;-47
2024/02/18 02:41:34;;;;;;;929.10;170.35;;;;;;;;;;4973559;28;20450;-48
2024/02/18 02:44:00;;;;;;;1070.55;184.15;;;;;;;;;;4972867;28;20130;-50
2024/02/18 02:46:26;;;;;;;1046.45;187.95;;;;;;;;;;4972623;28;20030;-48
2024/02/18 02:48:53;;;;;;;988.45;193.90;;;;;;;;;;4973263;28;20054;-47
2024/02/18 02:51:19;;;;;;;895.67;171.10;;;;;;;;;;4956352;28;20031;-47
2024/02/18 02:53:46;;;;;;;977.40;182.98;;;;;;;;;;4965274;28;20066;-46
2024/02/18 02:56:12;;;;;;;1235.70;237.30;;;;;;;;;;4955853;28;20038;-47
2024/02/18 02:58:39;;;;;;;980.15;181.00;;;;;;;;;;4973757;28;20034;-47
2024/02/18 03:01:05;;;;;;;558.20;132.40;;;;;;;;;;4966070;28;20032;-47
2024/02/18 03:03:32;;;;;;;540.33;136.73;;;;;;;;;;4961854;28;20030;-47
2024/02/18 03:05:58;;;;;;;591.40;145.50;;;;;;;;;;4960240;28;20024;-47
2024/02/18 03:08:27;;;;;;;827.20;167.80;;;;;;;;;;4958136;28;20031;-49
2024/02/18 03:10:54;;;;;;;548.57;132.83;;;;;;;;;;4974929;28;20174;-46
2024/02/18 03:13:20;;;;;;;670.58;152.05;;;;;;;;;;4972531;28;20134;-48
2024/02/18 03:15:47;;;;;;;502.43;132.93;;;;;;;;;;4962511;28;20499;-47
2024/02/18 03:18:14;;;;;;;648.45;149.10;;;;;;;;;;4974698;28;20129;-49
2024/02/18 03:20:41;;;;;;;624.33;143.95;;;;;;;;;;4974520;28;20075;-47
2024/02/18 03:23:07;;;;;;;485.30;132.52;;;;;;;;;;4973478;28;20416;-49
2024/02/18 03:25:38;;;;;;;554.00;130.07;;;;;;;;;;4963189;28;20046;-46
2024/02/18 03:28:04;;;;;;;536.70;128.65;;;;;;;;;;4962846;28;20110;-46
2024/02/18 03:30:30;;;;;;;494.63;132.48;;;;;;;;;;4956602;28;20490;-45
2024/02/18 03:32:56;;;;;;;533.35;134.25;;;;;;;;;;4955416;28;20031;-46
2024/02/18 03:35:27;;;;;;;619.05;137.02;;;;;;;;;;4956520;28;20023;-48
2024/02/18 03:37:55;;;;;;;693.40;145.52;;;;;;;;;;4969260;28;20533;-47
2024/02/18 03:40:21;;;;;;;657.90;147.68;;;;;;;;;;4973267;28;20051;-48
2024/02/18 03:42:48;;;;;;;761.40;170.15;;;;;;;;;;4956276;28;20429;-46
2024/02/18 03:45:14;;;;;;;1260.78;220.73;;;;;;;;;;4970194;28;20035;-48
2024/02/18 03:47:41;;;;;;;610.87;152.67;;;;;;;;;;4955564;28;20054;-47
2024/02/18 03:50:07;;;;;;;619.28;150.45;;;;;;;;;;4966865;28;20636;-47
2024/02/18 03:52:33;;;;;;;1001.80;199.73;;;;;;;;;;4974071;28;20072;-50
2024/02/18 03:55:00;;;;;;;705.55;181.38;;;;;;;;;;4966745;28;21624;-47
2024/02/18 03:57:26;;;;;;;740.67;172.90;;;;;;;;;;4969889;28;20023;-47
2024/02/18 03:59:52;;;;;;;920.60;202.85;;;;;;;;;;4959362;28;20502;-49
2024/02/18 04:02:18;;;;;;;1073.50;217.88;;;;;;;;;;4957199;28;20086;-47
2024/02/18 04:04:44;;;;;;;633.88;153.63;;;;;;;;;;4953519;28;20122;-47
2024/02/18 04:07:11;;;;;;;508.75;137.45;;;;;;;;;;4973487;28;20031;-47
2024/02/18 04:09:37;;;;;;;525.83;142.52;;;;;;;;;;4974166;28;20031;-46
2024/02/18 04:12:03;;;;;;;513.30;132.98;;;;;;;;;;4961482;28;20400;-46
2024/02/18 04:14:29;;;;;;;1162.57;241.65;;;;;;;;;;4968978;28;20037;-49
2024/02/18 04:16:56;;;;;;;520.20;140.02;;;;;;;;;;4958065;28;20110;-48
2024/02/18 04:19:22;;;;;;;351.70;122.30;;;;;;;;;;4953437;29;20031;-51
2024/02/18 04:21:48;;;;;;;440.20;122.57;;;;;;;;;;4967673;28;20026;-49
2024/02/18 04:24:14;;;;;;;435.70;126.47;;;;;;;;;;4953171;29;20551;-48
2024/02/18 04:26:40;;;;;;;277.02;109.13;;;;;;;;;;4955347;28;20020;-46
2024/02/18 04:29:06;;;;;;;371.77;122.65;;;;;;;;;;4966255;28;20081;-46
2024/02/18 04:31:33;;;;;;;397.63;118.30;;;;;;;;;;4960636;28;20040;-47
2024/02/18 04:33:59;;;;;;;493.50;136.68;;;;;;;;;;4955355;28;20031;-47
2024/02/18 04:36:25;;;;;;;372.10;123.57;;;;;;;;;;4952871;29;20039;-46
2024/02/18 04:38:52;;;;;;;1391.72;254.20;;;;;;;;;;4954997;28;20039;-48
2024/02/18 04:41:21;;;;;;;894.38;191.55;;;;;;;;;;4969006;28;20030;-47
2024/02/18 04:43:47;;;;;;;773.85;189.25;;;;;;;;;;4966923;28;20038;-46
2024/02/18 04:46:13;;;;;;;641.90;150.70;;;;;;;;;;4964203;28;20046;-47
2024/02/18 04:48:39;;;;;;;633.83;145.30;;;;;;;;;;4954982;28;20030;-47
2024/02/18 04:51:06;;;;;;;621.95;144.27;;;;;;;;;;4954087;28;20077;-45
2024/02/18 04:53:32;;;;;;;529.45;128.23;;;;;;;;;;4962013;28;20209;-47
2024/02/18 04:55:58;;;;;;;1196.40;233.18;;;;;;;;;;4969342;28;20377;-48
2024/02/18 04:58:25;;;;;;;446.42;124.00;;;;;;;;;;4969588;28;20051;-51
2024/02/18 05:00:51;;;;;;;474.45;120.35;;;;;;;;;;4960898;28;20133;-48
2024/02/18 05:03:17;;;;;;;440.02;115.32;;;;;;;;;;4967826;28;20038;-46
2024/02/18 05:05:43;;;;;;;436.73;114.50;;;;;;;;;;4970723;28;20022;-47
2024/02/18 05:08:09;;;;;;;450.58;113.40;;;;;;;;;;4969356;28;20031;-46
2024/02/18 05:10:37;;;;;;;395.48;103.28;;;;;;;;;;4952015;28;20392;-47
2024/02/18 05:13:03;;;;;;;605.15;118.75;;;;;;;;;;4955078;28;20058;-50
2024/02/18 05:15:29;;;;;;;456.90;116.37;;;;;;;;;;4963164;28;20019;-47
2024/02/18 05:17:55;;;;;;;642.50;157.52;;;;;;;;;;4969068;28;20789;-46
2024/02/18 05:20:22;;;;;;;635.50;123.25;;;;;;;;;;4953605;28;20034;-46
2024/02/18 05:22:48;;;;;;;479.73;116.67;;;;;;;;;;4953721;28;20055;-48
2024/02/18 05:25:14;;;;;;;855.72;159.70;;;;;;;;;;4956636;28;20034;-46
2024/02/18 05:27:40;;;;;;;954.38;198.77;;;;;;;;;;4953500;28;20085;-46
2024/02/18 05:30:07;;;;;;;695.60;141.65;;;;;;;;;;4953643;28;20058;-46
2024/02/18 05:32:33;;;;;;;802.83;164.38;;;;;;;;;;4972613;28;20027;-48
2024/02/18 05:35:00;;;;;;;813.60;168.75;;;;;;;;;;4970202;28;20027;-46
2024/02/18 05:37:26;;;;;;;748.15;150.02;;;;;;;;;;4963703;28;20031;-46
2024/02/18 05:39:52;;;;;;;777.45;149.38;;;;;;;;;;4954577;28;20031;-46
2024/02/18 05:42:18;;;;;;;937.85;175.82;;;;;;;;;;4952518;28;20059;-48
2024/02/18 05:44:44;;;;;;;698.13;142.70;;;;;;;;;;4971217;28;20067;-46
2024/02/18 05:47:10;;;;;;;943.27;198.67;;;;;;;;;;4960142;28;20027;-47
2024/02/18 05:49:37;;;;;;;731.10;154.43;;;;;;;;;;4971537;28;20031;-47
2024/02/18 05:52:03;;;;;;;1251.05;221.40;;;;;;;;;;4963967;28;20027;-48
2024/02/18 05:54:29;;;;;;;808.83;160.50;;;;;;;;;;4953221;28;20506;-45
2024/02/18 05:56:55;;;;;;;945.50;190.48;;;;;;;;;;4953325;28;20466;-46
2024/02/18 05:59:22;;;;;;;754.28;161.35;;;;;;;;;;4953408;28;20404;-48
2024/02/18 06:01:48;;;;;;;664.67;149.07;;;;;;;;;;4939922;29;20563;-47
2024/02/18 06:04:14;;;;;;;610.47;138.60;;;;;;;;;;4965689;28;20086;-49
2024/02/18 06:06:40;;;;;;;552.37;143.43;;;;;;;;;;4976186;28;20066;-46
2024/02/18 06:09:07;;;;;;;829.03;185.38;;;;;;;;;;4976406;28;20019;-46
2024/02/18 06:11:33;;;;;;;1240.03;249.32;;;;;;;;;;4975061;28;20031;-47
2024/02/18 06:13:59;;;;;;;664.10;167.73;;;;;;;;;;4975100;28;20561;-46
2024/02/18 06:16:25;;;;;;;722.53;172.90;;;;;;;;;;4975952;28;20027;-46
2024/02/18 06:18:51;;;;;;;752.60;166.27;;;;;;;;;;4975954;28;20050;-48
2024/02/18 06:21:21;;;;;;;1316.70;250.20;;;;;;;;;;4973329;28;20510;-46
2024/02/18 06:23:47;;;;;;;880.25;184.57;;;;;;;;;;4974349;28;20099;-48
2024/02/18 06:26:15;;;;;;;841.63;182.00;;;;;;;;;;4965366;28;20057;-51
2024/02/18 06:28:41;;;;;;;829.25;173.02;;;;;;;;;;4955472;28;20062;-47
2024/02/18 06:31:07;;;;;;;719.58;170.13;;;;;;;;;;4963906;28;20439;-47
2024/02/18 06:33:34;;;;;;;729.77;158.27;;;;;;;;;;4964221;28;20031;-50
2024/02/18 06:36:00;;;;;;;682.30;153.53;;;;;;;;;;4963577;28;20041;-47
2024/02/18 06:38:26;;;;;;;1055.70;224.27;;;;;;;;;;4975889;28;20107;-45
2024/02/18 06:40:52;;;;;;;737.75;167.38;;;;;;;;;;4973912;28;20141;-47
2024/02/18 06:43:19;;;;;;;837.97;190.80;;;;;;;;;;4965739;28;20035;-50
2024/02/18 06:45:45;;;;;;;1015.40;213.00;;;;;;;;;;4969765;28;20023;-48
2024/02/18 06:48:11;;;;;;;949.83;225.63;;;;;;;;;;4956337;28;20027;-47
2024/02/18 06:50:37;;;;;;;729.38;166.95;;;;;;;;;;4957261;28;20027;-50
2024/02/18 06:53:05;;;;;;;691.75;181.98;;;;;;;;;;4956420;28;20066;-47
2024/02/18 06:55:31;;;;;;;745.00;175.63;;;;;;;;;;4961876;28;20035;-49
2024/02/18 06:57:57;;;;;;;847.10;199.52;;;;;;;;;;4962274;28;20392;-50
2024/02/18 07:00:23;;;;;;;809.53;197.45;;;;;;;;;;4955190;28;20093;-45
2024/02/18 07:02:50;;;;;;;630.00;164.23;;;;;;;;;;4957198;28;20074;-50
2024/02/18 07:05:16;;;;;;;890.47;223.80;;;;;;;;;;4966452;28;20047;-50
2024/02/18 07:07:42;;;;;;;567.60;166.25;;;;;;;;;;4954727;28;20050;-48
2024/02/18 07:10:08;;;;;;;586.60;173.48;;;;;;;;;;4969211;28;20121;-50
2024/02/18 07:12:34;;;;;;;741.03;188.18;;;;;;;;;;4975157;28;20041;-47
2024/02/18 07:15:01;;;;;;;400.63;135.17;;;;;;;;;;4957837;28;20476;-48
2024/02/18 07:17:28;;;;;;;408.27;134.18;;;;;;;;;;4957442;28;20378;-48
2024/02/18 07:19:55;;;;;;;390.58;135.55;;;;;;;;;;4957188;28;20113;-47
2024/02/18 07:22:23;;;;;;;700.77;174.40;;;;;;;;;;4972619;28;20030;-47
2024/02/18 07:24:50;;;;;;;462.77;140.85;;;;;;;;;;4973032;28;20031;-47
2024/02/18 07:27:16;;;;;;;505.10;143.87;;;;;;;;;;4974135;28;20033;-47
2024/02/18 07:29:42;;;;;;;461.83;146.27;;;;;;;;;;4974728;28;20023;-46
2024/02/18 07:32:08;;;;;;;506.92;151.32;;;;;;;;;;4973663;28;20078;-50
2024/02/18 07:34:34;;;;;;;455.02;148.27;;;;;;;;;;4968964;28;20041;-49
2024/02/18 07:37:01;;;;;;;342.35;127.97;;;;;;;;;;4962162;28;20023;-47
2024/02/18 07:39:29;;;;;;;348.15;126.78;;;;;;;;;;4967716;28;20114;-45
2024/02/18 07:41:55;;;;;;;608.40;166.82;;;;;;;;;;4966182;28;20091;-48
2024/02/18 07:44:21;;;;;;;334.00;129.77;;;;;;;;;;4960137;28;20022;-46
2024/02/18 07:46:48;;;;;;;379.37;131.03;;;;;;;;;;4959582;28;20388;-46
2024/02/18 07:49:15;;;;;;;455.70;140.35;;;;;;;;;;4958670;28;20032;-49
2024/02/18 07:51:42;;;;;;;400.23;134.02;;;;;;;;;;4969317;28;20591;-48
2024/02/18 07:54:09;;;;;;;463.20;141.13;;;;;;;;;;4959001;28;20115;-46
2024/02/18 07:56:42;;;;;;;529.50;155.60;;;;;;;;;;4962244;28;20043;-47
2024/02/18 07:59:08;;;;;;;488.00;147.30;;;;;;;;;;4960425;28;20477;-48
2024/02/18 08:01:34;;;;;;;394.90;145.80;;;;;;;;;;4960354;28;20090;-46
2024/02/18 08:04:00;;;;;;;521.20;144.50;;;;;;;;;;4960280;28;20035;-46
2024/02/18 08:06:29;;;;;;;434.80;147.10;;;;;;;;;;4959581;28;20043;-47
2024/02/18 08:08:56;;;;;;;381.88;145.90;;;;;;;;;;4958439;28;20114;-47
2024/02/18 08:11:22;;;;;;;498.65;146.73;;;;;;;;;;4966593;28;20023;-45
2024/02/18 08:13:48;;;;;;;474.38;159.38;;;;;;;;;;4965314;28;20027;-48
2024/02/18 08:16:15;;;;;;;500.13;158.05;;;;;;;;;;4956248;28;20459;-47
2024/02/18 08:18:41;;;;;;;501.90;164.90;;;;;;;;;;4954636;29;20034;-46
2024/02/18 08:21:09;;;;;;;379.40;143.07;;;;;;;;;;4954772;28;20122;-46
2024/02/18 08:23:35;;;;;;;489.88;160.80;;;;;;;;;;4958275;28;20485;-45
2024/02/18 08:26:01;;;;;;;547.60;162.38;;;;;;;;;;4973755;28;20027;-46
2024/02/18 08:28:27;;;;;;;732.67;190.25;;;;;;;;;;4973955;28;20507;-47
2024/02/18 08:30:54;;;;;;;717.53;187.93;;;;;;;;;;4973850;28;20026;-49
2024/02/18 08:33:20;;;;;;;664.80;182.18;;;;;;;;;;4973884;28;20535;-46
2024/02/18 08:35:47;;;;;;;538.30;176.13;;;;;;;;;;4973562;28;20031;-46
2024/02/18 08:38:13;;;;;;;1194.63;277.98;;;;;;;;;;4973697;28;20027;-48
2024/02/18 08:40:39;;;;;;;663.50;188.67;;;;;;;;;;4964002;28;20039;-46
2024/02/18 08:43:05;;;;;;;556.78;189.40;;;;;;;;;;4973770;28;20415;-47
2024/02/18 08:45:32;;;;;;;964.03;228.27;;;;;;;;;;4972035;28;20034;-49
2024/02/18 08:47:58;;;;;;;852.28;204.15;;;;;;;;;;4973568;28;20114;-46
2024/02/18 08:50:24;;;;;;;794.47;190.75;;;;;;;;;;4973523;28;20110;-47
2024/02/18 08:52:50;;;;;;;724.17;208.07;;;;;;;;;;4972392;28;20027;-46
2024/02/18 08:55:16;;;;;;;1393.38;306.10;;;;;;;;;;4986122;28;20157;-49
2024/02/18 08:57:43;;;;;;;1080.68;220.05;;;;;;;;;;4992814;28;20030;-48
2024/02/18 09:00:10;;;;;;;608.58;181.20;;;;;;;;;;4992836;28;20065;-48
2024/02/18 09:02:37;;;;;;;664.80;198.32;;;;;;;;;;4991618;28;20380;-47
2024/02/18 09:05:03;;;;;;;681.95;199.73;;;;;;;;;;4990623;28;20029;-47
2024/02/18 09:07:31;;;;;;;1419.93;303.97;;;;;;;;;;4989621;28;20026;-47
2024/02/18 09:09:57;;;;;;;658.22;196.50;;;;;;;;;;4991093;28;20022;-47
2024/02/18 09:12:23;;;;;;;884.08;231.50;;;;;;;;;;4991484;28;20671;-49
2024/02/18 09:14:50;;;;;;;672.28;200.50;;;;;;;;;;4991739;28;20091;-50
2024/02/18 09:17:19;;;;;;;1298.32;283.00;;;;;;;;;;4992253;28;20030;-48
2024/02/18 09:19:46;;;;;;;1081.03;241.90;;;;;;;;;;4992197;28;20026;-47
2024/02/18 09:22:13;;;;;;;481.77;165.05;;;;;;;;;;4991806;28;20517;-47
2024/02/18 09:24:39;;;;;;;785.17;210.37;;;;;;;;;;4991425;28;20390;-47
2024/02/18 09:27:06;;;;;;;649.10;191.33;;;;;;;;;;4991561;28;20018;-47
2024/02/18 09:29:32;;;;;;;;;;;;;;;;;;5008029;28;20054;-47
2024/02/18 09:31:59;;;;;;;668.38;199.57;;;;;;;;;;4992022;28;19909;-47
2024/02/18 09:34:25;;;;;;;461.58;171.55;;;;;;;;;;4991799;28;20034;-50
2024/02/18 09:36:51;;;;;;;632.08;199.52;;;;;;;;;;4995094;28;20037;-50
2024/02/18 09:39:17;;;;;;;655.35;206.07;;;;;;;;;;4996395;28;20041;-48
2024/02/18 09:41:45;;;;;;;593.55;192.20;;;;;;;;;;4996466;28;20108;-47
2024/02/18 09:44:13;;;;;;;447.70;168.48;;;;;;;;;;4978759;28;20034;-48
2024/02/18 09:46:41;;;;;;;434.50;171.15;;;;;;;;;;4995892;28;20030;-46
2024/02/18 09:49:09;;;;;;;530.22;175.48;;;;;;;;;;4995070;28;20026;-48
2024/02/18 09:51:35;;;;;;;1137.63;268.60;;;;;;;;;;4996233;28;20073;-47
2024/02/18 09:54:05;;;;;;;799.58;202.48;;;;;;;;;;4996073;28;20081;-47
2024/02/18 09:56:31;;;;;;;758.83;213.77;;;;;;;;;;4978367;28;20034;-46
2024/02/18 09:58:57;;;;;;;814.40;215.82;;;;;;;;;;4994883;28;20053;-47
2024/02/18 10:01:24;;;;;;;580.80;191.40;;;;;;;;;;4994842;28;20565;-47
2024/02/18 10:03:50;;;;;;;526.60;179.20;;;;;;;;;;4995987;28;20494;-46
2024/02/18 10:06:17;;;;;;;618.25;185.40;;;;;;;;;;4994773;28;20026;-49
2024/02/18 10:08:43;;;;;;;531.00;177.73;;;;;;;;;;4995765;28;20034;-48
2024/02/18 10:11:10;;;;;;;570.78;189.57;;;;;;;;;;4996079;28;20038;-49
2024/02/18 10:13:36;;;;;;;1057.30;261.85;;;;;;;;;;4995844;28;20026;-50
2024/02/18 10:16:03;;;;;;;1277.72;307.55;;;;;;;;;;4995439;28;20486;-49
2024/02/18 10:18:29;;;;;;;771.03;211.17;;;;;;;;;;4993513;28;20104;-46
2024/02/18 10:20:55;;;;;;;467.20;195.52;;;;;;;;;;4976325;28;20265;-46
2024/02/18 10:23:21;;;;;;;807.83;254.93;;;;;;;;;;4994668;28;20118;-50
2024/02/18 10:25:51;;;;;;;646.85;225.52;;;;;;;;;;4995307;28;20028;-47
2024/02/18 10:28:17;;;;;;;649.75;214.70;;;;;;;;;;4994049;28;20101;-49
2024/02/18 10:30:43;;;;;;;502.37;193.30;;;;;;;;;;4995509;28;20132;-51
2024/02/18 10:33:09;;;;;;;481.33;193.87;;;;;;;;;;4995389;28;20030;-46
2024/02/18 10:35:36;;;;;;;461.95;184.45;;;;;;;;;;4994553;28;20027;-47
2024/02/18 10:38:07;;;;;;;451.17;186.97;;;;;;;;;;4995508;28;20089;-46
2024/02/18 10:40:40;;;;;;;714.00;232.50;;;;;;;;;;4995310;28;20308;-50
2024/02/18 10:43:09;;;;;;;490.63;204.13;;;;;;;;;;4993772;28;20026;-47
2024/02/18 10:45:35;;;;;;;1000.47;263.17;;;;;;;;;;4994526;28;20459;-48
2024/02/18 10:48:03;;;;;;;932.42;268.50;;;;;;;;;;4993846;28;20109;-48
2024/02/18 10:50:34;;;;;;;497.00;206.48;;;;;;;;;;4993875;28;20471;-46
2024/02/18 10:53:04;;;;;;;408.77;182.75;;;;;;;;;;4995131;28;20034;-48
2024/02/18 10:55:39;;;;;;;359.52;181.82;;;;;;;;;;4994542;28;20084;-47
2024/02/18 10:58:08;;;;;;;363.02;178.57;;;;;;;;;;4995089;28;20030;-48
2024/02/18 11:00:39;;;;;;;395.20;183.23;;;;;;;;;;4994800;28;20030;-46
2024/02/18 11:03:05;;;;;;;537.90;196.35;;;;;;;;;;4994918;28;20031;-46
2024/02/18 11:05:35;;;;;;;388.17;176.50;;;;;;;;;;4994668;28;20442;-47
2024/02/18 11:08:09;;;;;;;462.02;168.80;;;;;;;;;;4994659;28;20037;-48
2024/02/18 11:10:36;;;;;;;376.25;168.68;;;;;;;;;;4994805;28;20034;-47
2024/02/18 11:13:03;;;;;;;328.23;172.57;;;;;;;;;;4994663;28;20033;-48
2024/02/18 11:15:29;;;;;;;378.20;178.55;;;;;;;;;;4993104;28;20453;-47
2024/02/18 11:17:56;;;;;;;460.05;190.15;;;;;;;;;;4994696;28;20117;-49
2024/02/18 11:20:22;;;;;;;413.75;186.93;;;;;;;;;;4993210;28;20080;-48
2024/02/18 11:22:50;;;;;;;516.38;202.77;;;;;;;;;;4994499;28;20029;-49
2024/02/18 11:25:17;;;;;;;445.85;190.57;;;;;;;;;;4994130;28;20058;-47
2024/02/18 11:27:44;;;;;;;391.05;186.25;;;;;;;;;;4992910;28;20031;-49
2024/02/18 11:30:11;;;;;;;420.45;177.18;;;;;;;;;;4993351;28;20085;-49
2024/02/18 11:32:37;;;;;;;343.60;178.57;;;;;;;;;;4993169;28;20485;-50
2024/02/18 11:35:17;;;;;;;493.00;182.90;;;;;;;;;;4994287;28;20035;-51
2024/02/18 11:37:43;;;;;;;312.75;165.60;;;;;;;;;;4994382;28;20057;-48
2024/02/18 11:40:10;;;;;;;392.65;182.65;;;;;;;;;;4994327;28;20027;-49
2024/02/18 11:42:37;;;;;;;;;;;;;;;;;;4993412;28;20075;-50
2024/02/18 11:45:13;;;;;;;335.05;170.23;;;;;;;;;;5008960;28;19967;-49
2024/02/18 11:47:44;;;;;;;373.10;172.10;;;;;;;;;;4992311;28;20113;-48
2024/02/18 11:50:10;;;;;;;319.65;169.82;;;;;;;;;;4998078;28;20026;-51
2024/02/18 11:52:37;;;;;;;316.23;171.57;;;;;;;;;;4986571;28;20034;-52
2024/02/18 11:55:03;;;;;;;;;;;;;;;;;;4986413;28;20026;-51
2024/02/18 11:57:30;;;;;;;300.13;157.25;;;;;;;;;;4989444;28;19910;-47
2024/02/18 11:59:57;;;;;;;300.70;166.45;;;;;;;;;;4991212;28;20244;-47
2024/02/18 12:02:23;;;;;;;284.98;168.40;;;;;;;;;;4990642;28;20083;-47
2024/02/18 12:04:49;;;;;;;297.90;169.27;;;;;;;;;;4990385;28;20038;-49
2024/02/18 12:07:19;;;;;;;349.53;182.00;;;;;;;;;;4982089;28;20117;-49
2024/02/18 12:09:45;;;;;;;287.75;166.25;;;;;;;;;;4991714;28;20034;-46
2024/02/18 12:12:11;;;;;;;264.07;160.67;;;;;;;;;;4991540;28;20410;-49
2024/02/18 12:14:51;;;;;;;252.97;156.23;;;;;;;;;;4990204;28;20034;-48
2024/02/18 12:17:18;;;;;;;246.27;152.25;;;;;;;;;;4990275;28;20030;-46
2024/02/18 12:19:44;;;;;;;;;;;;;;;;;;4990743;28;20105;-47
2024/02/18 12:22:10;;;;;;;242.60;147.98;;;;;;;;;;4990114;28;19913;-47
2024/02/18 12:24:37;;;;;;;230.85;147.32;;;;;;;;;;4991387;28;20037;-49
2024/02/18 12:27:03;;;;;;;221.52;143.25;;;;;;;;;;4991389;28;20038;-47
2024/02/18 12:29:30;;;;;;;218.00;141.30;;;;;;;;;;4990105;28;20436;-47
2024/02/18 12:31:56;;;;;;;221.60;142.23;;;;;;;;;;4991632;28;20105;-47
2024/02/18 12:34:23;;;;;;;215.18;142.90;;;;;;;;;;4989725;28;20048;-49
2024/02/18 12:36:49;;;;;;;214.20;146.07;;;;;;;;;;4991074;28;20034;-48
2024/02/18 12:39:15;;;;;;;209.43;142.48;;;;;;;;;;4991435;28;20073;-47
2024/02/18 12:41:42;;;;;;;201.17;139.23;;;;;;;;;;4991290;28;20038;-47
2024/02/18 12:44:08;;;;;;;199.07;132.20;;;;;;;;;;4991345;28;20113;-48
2024/02/18 12:46:34;;;;;;;190.75;134.05;;;;;;;;;;4991364;28;20079;-48
2024/02/18 12:49:05;;;;;;;185.75;128.75;;;;;;;;;;4991283;28;20073;-47
2024/02/18 12:51:36;;;;;;;173.63;125.80;;;;;;;;;;4991224;28;20030;-47
2024/02/18 12:54:02;;;;;;;184.65;130.57;;;;;;;;;;4990992;28;20028;-48
2024/02/18 12:56:30;;;;;;;175.67;131.10;;;;;;;;;;4988250;23;20071;-50
2024/02/18 12:58:57;;;;;;;172.52;126.72;;;;;;;;;;4969964;28;20626;-50
2024/02/18 13:01:24;;;;;;;175.35;131.10;;;;;;;;;;4958838;28;20146;-49
2024/02/18 13:03:51;;;;;;;167.10;123.55;;;;;;;;;;4951021;28;20122;-50
2024/02/18 13:06:19;;;;;;;169.68;125.88;;;;;;;;;;4950861;28;20027;-50
2024/02/18 13:08:45;;;;;;;;;;;;;;;;;;4952679;28;20031;-49
2024/02/18 13:11:15;;;;;;;158.73;118.13;;;;;;;;;;4952319;28;19956;-51
2024/02/18 13:13:44;;;;;;;154.90;119.60;;;;;;;;;;4965616;28;20637;-49
2024/02/18 13:16:11;;;;;;;161.55;121.57;;;;;;;;;;4961875;28;20559;-50
2024/02/18 13:18:42;;;;;;;160.00;123.87;;;;;;;;;;4951031;29;20042;-52
2024/02/18 13:21:09;;;;;;;167.98;125.57;;;;;;;;;;4959618;28;20766;-53
2024/02/18 13:23:40;;;;;;;155.35;120.18;;;;;;;;;;4971356;28;20031;-49
2024/02/18 13:26:10;;;;;;;155.13;118.30;;;;;;;;;;4968009;28;20023;-49
2024/02/18 13:28:36;;;;;;;160.98;123.65;;;;;;;;;;4955859;28;20488;-50
2024/02/18 13:31:03;;;;;;;156.40;122.40;;;;;;;;;;4963099;28;20035;-48
2024/02/18 13:33:30;;;;;;;153.90;120.97;;;;;;;;;;4952178;28;20492;-48
2024/02/18 13:35:56;;;;;;;154.95;120.38;;;;;;;;;;4951042;28;20035;-51
2024/02/18 13:38:22;;;;;;;160.87;125.30;;;;;;;;;;4952072;28;20460;-49
2024/02/18 13:40:48;;;;;;;154.95;118.80;;;;;;;;;;4952119;28;20031;-48
2024/02/18 13:43:15;;;;;;;151.80;120.07;;;;;;;;;;4950975;29;20097;-49
2024/02/18 13:45:42;;;;;;;162.25;122.68;;;;;;;;;;4967462;28;20130;-50
2024/02/18 13:48:08;;;;;;;159.65;124.80;;;;;;;;;;4951019;28;20027;-49
2024/02/18 13:50:35;;;;;;;161.10;123.55;;;;;;;;;;4951102;29;20043;-49